createdAt,value
2022-11-16T00:00:36.861Z,137.20
2022-11-16T00:01:36.922Z,146.30
2022-11-16T00:02:36.915Z,128.00
2022-11-16T00:03:36.787Z,127.20
2022-11-16T00:04:36.797Z,133.70
2022-11-16T00:05:36.776Z,130.30
2022-11-16T00:06:36.762Z,126.30
2022-11-16T00:07:36.842Z,128.90
2022-11-16T00:08:36.877Z,117.40
2022-11-16T00:09:36.739Z,127.10
2022-11-16T00:10:36.707Z,118.90
2022-11-16T00:11:36.692Z,124.00
2022-11-16T00:12:36.757Z,126.40
2022-11-16T00:13:36.661Z,122.50
2022-11-16T00:15:47.802Z,119.30
2022-11-16T00:16:48.806Z,123.50
2022-11-16T00:17:48.789Z,124.20
2022-11-16T00:18:48.781Z,114.30
2022-11-16T00:19:48.774Z,117.40
2022-11-16T00:20:48.777Z,109.40
2022-11-16T00:21:48.746Z,124.90
2022-11-16T00:22:48.738Z,116.10
2022-11-16T00:23:48.692Z,117.60
2022-11-16T00:24:48.715Z,118.60
2022-11-16T00:25:48.712Z,112.70
2022-11-16T00:26:49.704Z,111.10
2022-11-16T00:27:48.655Z,113.20
2022-11-16T00:28:48.640Z,113.00
2022-11-16T00:29:48.627Z,113.70
2022-11-16T00:30:48.629Z,111.70
2022-11-16T00:31:48.626Z,114.00
2022-11-16T00:32:48.605Z,112.50
2022-11-16T00:33:48.594Z,115.70
2022-11-16T00:34:48.581Z,119.10
2022-11-16T00:35:48.540Z,113.00
2022-11-16T00:36:48.540Z,109.20
2022-11-16T00:37:48.516Z,114.80
2022-11-16T00:38:48.526Z,114.10
2022-11-16T00:39:48.526Z,110.90
2022-11-16T00:40:48.499Z,110.00
2022-11-16T00:41:48.485Z,109.80
2022-11-16T00:42:48.457Z,99.80
2022-11-16T00:43:48.444Z,101.50
2022-11-16T00:44:48.425Z,102.30
2022-11-16T00:45:48.415Z,106.90
2022-11-16T00:46:48.403Z,108.70
2022-11-16T00:47:48.413Z,103.90
2022-11-16T00:48:48.368Z,107.70
2022-11-16T00:49:48.398Z,111.10
2022-11-16T00:50:48.366Z,107.50
2022-11-16T00:51:48.357Z,105.40
2022-11-16T00:52:48.349Z,111.30
2022-11-16T00:53:48.320Z,103.30
2022-11-16T00:54:48.305Z,115.40
2022-11-16T00:55:48.339Z,104.30
2022-11-16T00:56:48.282Z,108.80
2022-11-16T00:57:48.259Z,115.40
2022-11-16T00:58:48.290Z,110.40
2022-11-16T00:59:48.274Z,117.10
2022-11-16T01:00:48.227Z,100.80
2022-11-16T01:01:48.260Z,100.20
2022-11-16T01:02:48.214Z,119.30
2022-11-16T01:03:48.198Z,106.90
2022-11-16T01:04:48.179Z,102.60
2022-11-16T01:05:48.175Z,112.10
2022-11-16T01:06:48.172Z,101.60
2022-11-16T01:07:48.146Z,111.80
2022-11-16T01:08:48.110Z,117.60
2022-11-16T01:09:48.143Z,102.90
2022-11-16T01:10:48.119Z,109.80
2022-11-16T01:11:48.099Z,104.40
2022-11-16T01:12:48.082Z,105.20
2022-11-16T01:13:48.067Z,111.80
2022-11-16T01:14:48.050Z,108.80
2022-11-16T01:15:48.056Z,113.40
2022-11-16T01:16:48.004Z,123.40
2022-11-16T01:17:48.028Z,107.70
2022-11-16T01:18:47.977Z,107.00
2022-11-16T01:19:47.970Z,115.20
2022-11-16T01:20:47.951Z,99.90
2022-11-16T01:21:47.961Z,115.60
2022-11-16T01:22:47.961Z,100.50
2022-11-16T01:23:47.950Z,113.60
2022-11-16T01:24:47.924Z,98.30
2022-11-16T01:25:47.906Z,105.50
2022-11-16T01:26:47.907Z,110.40
2022-11-16T01:27:47.882Z,104.80
2022-11-16T01:28:47.857Z,108.70
2022-11-16T01:29:47.855Z,108.00
2022-11-16T01:30:47.880Z,102.60
2022-11-16T01:31:47.826Z,106.80
2022-11-16T01:32:47.819Z,101.60
2022-11-16T01:33:47.812Z,101.90
2022-11-16T01:34:47.796Z,95.80
2022-11-16T01:35:47.813Z,105.30
2022-11-16T01:36:47.751Z,99.10
2022-11-16T01:37:47.757Z,102.90
2022-11-16T01:38:47.737Z,100.20
2022-11-16T01:39:47.774Z,99.30
2022-11-16T01:40:47.730Z,100.10
2022-11-16T01:41:47.741Z,102.40
2022-11-16T01:42:47.686Z,100.70
2022-11-16T01:43:47.700Z,98.80
2022-11-16T01:44:47.675Z,106.90
2022-11-16T01:45:47.680Z,95.40
2022-11-16T01:46:47.639Z,95.40
2022-11-16T01:47:47.620Z,97.50
2022-11-16T01:48:47.681Z,97.90
2022-11-16T01:49:47.647Z,101.00
2022-11-16T01:50:47.597Z,99.50
2022-11-16T01:51:47.573Z,97.70
2022-11-16T01:52:47.571Z,98.10
2022-11-16T01:53:47.549Z,104.30
2022-11-16T01:54:47.541Z,106.20
2022-11-16T01:55:47.561Z,103.40
2022-11-16T01:56:47.509Z,99.70
2022-11-16T01:57:47.506Z,96.40
2022-11-16T01:58:47.472Z,98.60
2022-11-16T01:59:47.471Z,100.60
2022-11-16T02:00:47.472Z,95.10
2022-11-16T02:01:47.429Z,102.20
2022-11-16T02:02:47.435Z,97.40
2022-11-16T02:03:47.422Z,95.70
2022-11-16T02:04:47.380Z,103.20
2022-11-16T02:05:47.389Z,96.60
2022-11-16T02:06:47.454Z,89.80
2022-11-16T02:07:47.395Z,101.00
2022-11-16T02:08:47.363Z,98.20
2022-11-16T02:09:47.344Z,98.00
2022-11-16T02:10:47.321Z,112.30
2022-11-16T02:11:47.320Z,103.20
2022-11-16T02:12:47.294Z,105.00
2022-11-16T02:13:47.309Z,103.40
2022-11-16T02:14:47.271Z,105.10
2022-11-16T02:15:47.278Z,100.50
2022-11-16T02:16:47.220Z,107.60
2022-11-16T02:17:47.229Z,117.80
2022-11-16T02:18:47.254Z,105.20
2022-11-16T02:19:47.236Z,105.50
2022-11-16T02:20:47.200Z,101.00
2022-11-16T02:21:47.161Z,106.50
2022-11-16T02:22:47.162Z,107.80
2022-11-16T02:23:47.156Z,103.60
2022-11-16T02:24:47.124Z,101.00
2022-11-16T02:25:47.144Z,106.10
2022-11-16T02:26:47.152Z,110.30
2022-11-16T02:27:47.091Z,109.60
2022-11-16T02:28:47.073Z,98.70
2022-11-16T02:29:47.081Z,101.50
2022-11-16T02:30:47.040Z,104.60
2022-11-16T02:31:47.028Z,101.80
2022-11-16T02:32:47.033Z,108.50
2022-11-16T02:33:47.030Z,100.40
2022-11-16T02:34:47.028Z,100.60
2022-11-16T02:35:47.019Z,105.30
2022-11-16T02:36:46.984Z,102.80
2022-11-16T02:37:47.024Z,98.10
2022-11-16T02:38:46.978Z,108.90
2022-11-16T02:39:46.951Z,106.60
2022-11-16T02:40:46.920Z,102.20
2022-11-16T02:41:46.928Z,117.70
2022-11-16T02:42:46.887Z,99.00
2022-11-16T02:43:46.891Z,107.50
2022-11-16T02:44:46.891Z,97.70
2022-11-16T02:45:46.839Z,105.40
2022-11-16T02:46:46.860Z,116.00
2022-11-16T02:47:46.833Z,115.70
2022-11-16T02:48:46.813Z,110.60
2022-11-16T02:49:46.815Z,104.80
2022-11-16T02:50:46.794Z,120.60
2022-11-16T02:51:46.781Z,103.20
2022-11-16T02:52:46.800Z,110.20
2022-11-16T02:53:46.758Z,106.20
2022-11-16T02:54:46.747Z,113.40
2022-11-16T02:55:46.715Z,126.70
2022-11-16T02:56:46.761Z,114.40
2022-11-16T02:57:46.717Z,117.90
2022-11-16T02:58:46.727Z,110.60
2022-11-16T02:59:46.674Z,111.10
2022-11-16T03:00:46.733Z,118.80
2022-11-16T03:01:46.637Z,111.90
2022-11-16T03:02:46.631Z,105.60
2022-11-16T03:03:46.641Z,111.90
2022-11-16T03:04:46.612Z,113.10
2022-11-16T03:05:46.596Z,111.60
2022-11-16T03:06:46.791Z,119.40
2022-11-16T03:07:46.596Z,112.90
2022-11-16T03:08:46.575Z,125.00
2022-11-16T03:09:46.573Z,110.30
2022-11-16T03:10:46.551Z,121.40
2022-11-16T03:11:46.504Z,111.10
2022-11-16T03:12:46.514Z,112.10
2022-11-16T03:13:46.496Z,121.80
2022-11-16T03:14:46.492Z,112.20
2022-11-16T03:15:46.451Z,112.40
2022-11-16T03:16:46.468Z,111.20
2022-11-16T03:17:46.429Z,114.60
2022-11-16T03:18:46.445Z,129.30
2022-11-16T03:19:46.393Z,120.70
2022-11-16T03:20:46.408Z,120.20
2022-11-16T03:21:46.381Z,109.70
2022-11-16T03:22:46.384Z,134.50
2022-11-16T03:23:46.358Z,129.30
2022-11-16T03:24:46.348Z,128.80
2022-11-16T03:25:46.321Z,133.00
2022-11-16T03:26:46.311Z,127.10
2022-11-16T03:27:46.336Z,130.20
2022-11-16T03:28:46.287Z,147.80
2022-11-16T03:29:46.275Z,129.30
2022-11-16T03:30:46.260Z,128.20
2022-11-16T03:31:46.252Z,137.40
2022-11-16T03:32:46.270Z,127.90
2022-11-16T03:33:46.219Z,152.10
2022-11-16T03:34:46.226Z,128.80
2022-11-16T03:35:46.210Z,126.70
2022-11-16T03:36:46.202Z,135.50
2022-11-16T03:37:46.180Z,123.10
2022-11-16T03:38:46.171Z,127.10
2022-11-16T03:39:46.154Z,125.10
2022-11-16T03:40:46.155Z,146.50
2022-11-16T03:41:46.116Z,131.70
2022-11-16T03:42:46.116Z,136.80
2022-11-16T03:43:46.117Z,139.30
2022-11-16T03:44:46.090Z,134.30
2022-11-16T03:45:46.080Z,135.30
2022-11-16T03:46:46.043Z,135.20
2022-11-16T03:47:46.462Z,133.20
2022-11-16T03:48:46.701Z,134.90
2022-11-16T03:49:46.251Z,136.10
2022-11-16T03:50:46.507Z,132.60
2022-11-16T03:51:46.396Z,166.30
2022-11-16T03:52:45.992Z,149.40
2022-11-16T03:53:46.211Z,138.00
2022-11-16T03:54:46.115Z,148.80
2022-11-16T03:55:49.764Z,137.70
2022-11-16T03:56:45.932Z,138.90
2022-11-16T03:57:45.922Z,140.20
2022-11-16T03:58:45.945Z,134.20
2022-11-16T03:59:45.904Z,134.40
2022-11-16T04:00:45.976Z,136.90
2022-11-16T04:01:45.859Z,138.00
2022-11-16T04:02:45.845Z,146.10
2022-11-16T04:03:45.822Z,141.80
2022-11-16T04:04:45.836Z,146.20
2022-11-16T04:05:45.808Z,136.80
2022-11-16T04:06:45.826Z,132.90
2022-11-16T04:07:45.790Z,142.80
2022-11-16T04:08:45.786Z,149.00
2022-11-16T04:09:45.792Z,152.60
2022-11-16T04:10:45.739Z,150.10
2022-11-16T04:11:45.745Z,153.50
2022-11-16T04:12:45.730Z,144.40
2022-11-16T04:13:45.704Z,142.60
2022-11-16T04:14:45.703Z,151.70
2022-11-16T04:15:45.676Z,155.30
2022-11-16T04:16:45.659Z,159.30
2022-11-16T04:17:45.660Z,152.30
2022-11-16T04:18:45.625Z,151.90
2022-11-16T04:19:45.623Z,163.80
2022-11-16T04:20:45.623Z,158.10
2022-11-16T04:21:45.632Z,157.10
2022-11-16T04:22:45.593Z,157.80
2022-11-16T04:23:45.575Z,164.50
2022-11-16T04:24:45.583Z,162.50
2022-11-16T04:25:45.549Z,154.90
2022-11-16T04:26:45.565Z,155.80
2022-11-16T04:27:45.515Z,161.60
2022-11-16T04:28:45.565Z,159.70
2022-11-16T04:29:45.524Z,170.80
2022-11-16T04:30:45.486Z,159.20
2022-11-16T04:31:45.465Z,157.40
2022-11-16T04:32:45.495Z,163.70
2022-11-16T04:33:45.464Z,169.30
2022-11-16T04:34:45.442Z,159.20
2022-11-16T04:35:45.428Z,166.70
2022-11-16T04:36:45.391Z,169.30
2022-11-16T04:37:45.410Z,174.80
2022-11-16T04:38:45.420Z,176.90
2022-11-16T04:39:45.369Z,171.10
2022-11-16T04:40:45.375Z,180.20
2022-11-16T04:41:45.364Z,174.00
2022-11-16T04:42:45.367Z,180.90
2022-11-16T04:43:45.313Z,179.00
2022-11-16T04:44:45.304Z,181.30
2022-11-16T04:45:45.275Z,178.40
2022-11-16T04:46:45.282Z,188.10
2022-11-16T04:47:45.247Z,183.30
2022-11-16T04:48:45.237Z,184.90
2022-11-16T04:49:45.316Z,170.60
2022-11-16T04:50:45.220Z,186.20
2022-11-16T04:51:45.240Z,189.00
2022-11-16T04:52:45.219Z,180.90
2022-11-16T04:53:45.189Z,193.80
2022-11-16T04:54:45.176Z,193.50
2022-11-16T04:55:45.167Z,181.80
2022-11-16T04:56:45.146Z,192.80
2022-11-16T04:57:45.145Z,195.40
2022-11-16T04:58:45.120Z,188.50
2022-11-16T04:59:45.116Z,186.40
2022-11-16T05:00:45.092Z,178.90
2022-11-16T05:01:45.124Z,188.80
2022-11-16T05:02:45.070Z,184.60
2022-11-16T05:03:45.054Z,179.10
2022-11-16T05:04:45.071Z,190.00
2022-11-16T05:05:45.021Z,178.80
2022-11-16T05:06:45.007Z,190.30
2022-11-16T05:07:44.983Z,182.80
2022-11-16T05:08:45.031Z,181.40
2022-11-16T05:09:44.956Z,178.80
2022-11-16T05:10:44.968Z,183.20
2022-11-16T05:11:44.938Z,179.30
2022-11-16T05:12:44.959Z,188.60
2022-11-16T05:13:44.900Z,177.70
2022-11-16T05:14:44.902Z,183.20
2022-11-16T05:15:44.876Z,174.10
2022-11-16T05:16:44.887Z,172.10
2022-11-16T05:17:44.852Z,168.40
2022-11-16T05:18:44.877Z,175.70
2022-11-16T05:19:44.821Z,171.90
2022-11-16T05:20:44.825Z,174.80
2022-11-16T05:21:44.827Z,169.20
2022-11-16T05:22:44.796Z,183.90
2022-11-16T05:23:44.773Z,169.80
2022-11-16T05:24:44.793Z,176.60
2022-11-16T05:25:44.779Z,173.70
2022-11-16T05:26:44.741Z,175.20
2022-11-16T05:27:44.747Z,174.80
2022-11-16T05:28:44.742Z,176.60
2022-11-16T05:29:44.740Z,176.30
2022-11-16T05:30:44.714Z,179.70
2022-11-16T05:31:44.696Z,160.90
2022-11-16T05:32:44.688Z,167.30
2022-11-16T05:33:44.670Z,178.00
2022-11-16T05:34:44.706Z,177.80
2022-11-16T05:35:44.663Z,169.20
2022-11-16T05:36:44.625Z,181.10
2022-11-16T05:37:44.648Z,180.50
2022-11-16T05:38:44.627Z,178.70
2022-11-16T05:39:44.593Z,167.60
2022-11-16T05:40:44.628Z,177.50
2022-11-16T05:41:44.588Z,178.60
2022-11-16T05:42:44.576Z,178.00
2022-11-16T05:43:44.562Z,182.30
2022-11-16T05:44:44.534Z,163.80
2022-11-16T05:45:44.500Z,179.30
2022-11-16T05:46:44.497Z,180.20
2022-11-16T05:47:44.503Z,176.30
2022-11-16T05:48:44.529Z,174.10
2022-11-16T05:49:44.446Z,176.30
2022-11-16T05:50:44.471Z,184.70
2022-11-16T05:51:44.426Z,173.60
2022-11-16T05:52:44.429Z,175.00
2022-11-16T05:53:44.429Z,181.40
2022-11-16T05:54:44.415Z,178.10
2022-11-16T05:55:44.445Z,179.70
2022-11-16T05:56:44.358Z,173.40
2022-11-16T05:57:44.388Z,177.30
2022-11-16T05:58:44.330Z,189.90
2022-11-16T05:59:44.338Z,185.70
2022-11-16T06:00:44.329Z,186.70
2022-11-16T06:01:44.367Z,180.60
2022-11-16T06:02:44.350Z,186.70
2022-11-16T06:03:44.263Z,185.30
2022-11-16T06:04:44.249Z,181.30
2022-11-16T06:05:44.273Z,176.00
2022-11-16T06:06:44.250Z,183.90
2022-11-16T06:07:44.260Z,186.90
2022-11-16T06:08:44.226Z,178.40
2022-11-16T06:09:44.199Z,185.80
2022-11-16T06:10:44.241Z,185.60
2022-11-16T06:11:44.191Z,187.30
2022-11-16T06:12:44.174Z,188.10
2022-11-16T06:13:44.153Z,193.00
2022-11-16T06:14:44.143Z,195.00
2022-11-16T06:15:57.028Z,187.60
2022-11-16T06:16:44.165Z,181.60
2022-11-16T06:17:44.106Z,186.90
2022-11-16T06:18:44.097Z,189.00
2022-11-16T06:19:44.108Z,192.20
2022-11-16T06:20:44.094Z,195.80
2022-11-16T06:21:44.082Z,195.60
2022-11-16T06:22:44.032Z,203.40
2022-11-16T06:23:44.002Z,182.60
2022-11-16T06:24:44.032Z,197.30
2022-11-16T06:25:43.964Z,193.20
2022-11-16T06:26:43.982Z,192.20
2022-11-16T06:27:43.951Z,186.00
2022-11-16T06:28:43.959Z,196.40
2022-11-16T06:29:43.952Z,197.60
2022-11-16T06:30:43.931Z,192.50
2022-11-16T06:31:43.908Z,193.90
2022-11-16T06:32:43.910Z,201.40
2022-11-16T06:33:43.861Z,200.40
2022-11-16T06:34:43.874Z,196.20
2022-11-16T06:35:43.847Z,201.00
2022-11-16T06:36:43.832Z,198.20
2022-11-16T06:37:43.848Z,204.20
2022-11-16T06:38:43.820Z,201.60
2022-11-16T06:39:43.791Z,207.00
2022-11-16T06:40:43.787Z,197.70
2022-11-16T06:41:43.789Z,196.40
2022-11-16T06:42:43.810Z,204.20
2022-11-16T06:43:43.757Z,197.10
2022-11-16T06:44:43.754Z,198.80
2022-11-16T06:45:43.739Z,201.00
2022-11-16T06:46:43.723Z,206.90
2022-11-16T06:47:43.719Z,211.70
2022-11-16T06:48:43.740Z,205.70
2022-11-16T06:49:43.669Z,206.30
2022-11-16T06:50:43.747Z,211.10
2022-11-16T06:51:43.650Z,227.70
2022-11-16T06:52:43.693Z,212.10
2022-11-16T06:53:43.689Z,211.50
2022-11-16T06:54:43.624Z,208.60
2022-11-16T06:55:43.607Z,211.70
2022-11-16T06:56:43.606Z,211.80
2022-11-16T06:57:43.586Z,214.40
2022-11-16T06:58:43.570Z,225.20
2022-11-16T06:59:43.537Z,223.20
2022-11-16T07:00:43.542Z,224.10
2022-11-16T07:01:43.624Z,225.80
2022-11-16T07:02:43.513Z,237.70
2022-11-16T07:03:43.478Z,210.70
2022-11-16T07:04:43.487Z,210.80
2022-11-16T07:05:43.487Z,223.10
2022-11-16T07:06:43.509Z,220.60
2022-11-16T07:07:43.466Z,220.70
2022-11-16T07:08:43.472Z,218.20
2022-11-16T07:09:43.455Z,234.20
2022-11-16T07:10:43.413Z,241.20
2022-11-16T07:11:43.445Z,221.90
2022-11-16T07:12:43.374Z,220.70
2022-11-16T07:13:43.372Z,234.90
2022-11-16T07:14:43.331Z,239.40
2022-11-16T07:15:43.343Z,241.00
2022-11-16T07:16:43.300Z,239.40
2022-11-16T07:17:43.332Z,224.10
2022-11-16T07:18:43.309Z,243.10
2022-11-16T07:19:43.285Z,233.00
2022-11-16T07:20:43.270Z,229.20
2022-11-16T07:21:43.317Z,238.80
2022-11-16T07:22:43.250Z,234.60
2022-11-16T07:23:43.235Z,240.70
2022-11-16T07:24:43.230Z,238.70
2022-11-16T07:25:43.238Z,239.00
2022-11-16T07:26:43.211Z,252.00
2022-11-16T07:27:43.235Z,240.10
2022-11-16T07:28:47.987Z,231.20
2022-11-16T07:29:43.176Z,233.70
2022-11-16T07:30:43.168Z,243.10
2022-11-16T07:31:43.138Z,240.60
2022-11-16T07:32:43.137Z,240.80
2022-11-16T07:33:43.142Z,238.30
2022-11-16T07:34:43.078Z,231.10
2022-11-16T07:35:43.063Z,254.10
2022-11-16T07:36:43.111Z,244.60
2022-11-16T07:37:43.057Z,263.30
2022-11-16T07:38:43.047Z,252.00
2022-11-16T07:39:43.011Z,260.20
2022-11-16T07:40:43.010Z,255.10
2022-11-16T07:41:43.020Z,255.80
2022-11-16T07:42:43.002Z,264.50
2022-11-16T07:43:44.377Z,267.90
2022-11-16T07:44:42.980Z,264.50
2022-11-16T07:45:42.947Z,253.30
2022-11-16T07:46:47.949Z,250.60
2022-11-16T07:47:42.932Z,256.40
2022-11-16T07:48:42.902Z,249.40
2022-11-16T07:49:42.914Z,267.30
2022-11-16T07:50:42.883Z,252.40
2022-11-16T07:51:42.911Z,260.90
2022-11-16T07:52:42.839Z,259.50
2022-11-16T07:53:42.858Z,258.40
2022-11-16T07:54:42.828Z,255.30
2022-11-16T07:55:42.817Z,262.50
2022-11-16T07:56:42.805Z,248.60
2022-11-16T07:57:42.799Z,262.70
2022-11-16T07:58:42.773Z,261.80
2022-11-16T07:59:42.767Z,261.10
2022-11-16T08:00:42.755Z,262.30
2022-11-16T08:01:42.783Z,259.60
2022-11-16T08:02:42.735Z,259.50
2022-11-16T08:03:42.709Z,257.00
2022-11-16T08:04:42.759Z,263.80
2022-11-16T08:05:42.689Z,264.60
2022-11-16T08:06:42.664Z,262.80
2022-11-16T08:07:42.698Z,256.00
2022-11-16T08:08:42.635Z,259.80
2022-11-16T08:09:42.655Z,259.10
2022-11-16T08:10:42.608Z,264.90
2022-11-16T08:11:42.608Z,248.80
2022-11-16T08:12:42.597Z,252.20
2022-11-16T08:13:42.603Z,231.60
2022-11-16T08:14:42.579Z,235.60
2022-11-16T08:15:42.555Z,229.10
2022-11-16T08:16:42.734Z,238.20
2022-11-16T08:17:42.518Z,230.50
2022-11-16T08:18:42.547Z,234.10
2022-11-16T08:19:42.514Z,231.10
2022-11-16T08:20:42.525Z,238.70
2022-11-16T08:21:42.486Z,219.20
2022-11-16T08:22:42.458Z,219.20
2022-11-16T08:23:42.441Z,216.00
2022-11-16T08:24:42.440Z,216.50
2022-11-16T08:25:42.412Z,208.30
2022-11-16T08:26:42.422Z,208.10
2022-11-16T08:27:42.407Z,198.20
2022-11-16T08:28:42.400Z,196.70
2022-11-16T08:29:42.391Z,183.90
2022-11-16T08:30:42.369Z,184.70
2022-11-16T08:31:42.345Z,179.40
2022-11-16T08:32:42.355Z,188.00
2022-11-16T08:33:42.393Z,174.20
2022-11-16T08:34:42.415Z,166.70
2022-11-16T08:35:42.307Z,167.80
2022-11-16T08:36:42.281Z,161.50
2022-11-16T08:37:42.274Z,170.00
2022-11-16T08:38:42.239Z,164.90
2022-11-16T08:39:42.243Z,161.90
2022-11-16T08:40:42.214Z,166.00
2022-11-16T08:41:42.241Z,155.80
2022-11-16T08:42:43.827Z,162.10
2022-11-16T08:43:42.190Z,159.50
2022-11-16T08:44:42.167Z,161.60
2022-11-16T08:45:42.156Z,154.40
2022-11-16T08:46:42.132Z,144.80
2022-11-16T08:47:42.133Z,150.60
2022-11-16T08:48:42.114Z,148.40
2022-11-16T08:49:46.700Z,134.90
2022-11-16T08:51:15.454Z,140.30
2022-11-16T08:51:42.080Z,134.10
2022-11-16T08:52:42.083Z,127.70
2022-11-16T08:53:42.055Z,129.00
2022-11-16T08:54:42.039Z,126.80
2022-11-16T08:55:42.039Z,123.90
2022-11-16T08:56:42.023Z,125.30
2022-11-16T08:57:42.028Z,123.90
2022-11-16T08:58:41.983Z,120.10
2022-11-16T08:59:41.988Z,113.60
2022-11-16T09:00:41.956Z,117.70
2022-11-16T09:01:42.008Z,129.50
2022-11-16T09:02:41.948Z,109.20
2022-11-16T09:03:41.949Z,115.80
2022-11-16T09:04:41.934Z,116.20
2022-11-16T09:05:41.909Z,116.90
2022-11-16T09:06:41.875Z,116.70
2022-11-16T09:07:41.861Z,117.10
2022-11-16T09:08:41.874Z,119.00
2022-11-16T09:09:42.052Z,124.80
2022-11-16T09:10:41.849Z,115.00
2022-11-16T09:11:41.814Z,117.80
2022-11-16T09:12:41.824Z,128.10
2022-11-16T09:13:41.786Z,121.40
2022-11-16T09:14:41.779Z,109.60
2022-11-16T09:15:41.798Z,117.00
2022-11-16T09:16:41.754Z,119.90
2022-11-16T09:17:41.755Z,110.70
2022-11-16T09:18:41.715Z,111.00
2022-11-16T09:19:41.709Z,107.00
2022-11-16T09:20:41.701Z,108.10
2022-11-16T09:21:41.711Z,108.20
2022-11-16T09:22:41.669Z,107.10
2022-11-16T09:23:41.673Z,99.30
2022-11-16T09:24:41.652Z,108.00
2022-11-16T09:25:41.653Z,98.80
2022-11-16T09:26:41.652Z,95.40
2022-11-16T09:27:41.627Z,97.70
2022-11-16T09:28:41.608Z,102.20
2022-11-16T09:29:41.578Z,95.50
2022-11-16T09:30:41.564Z,96.40
2022-11-16T09:31:41.571Z,96.90
2022-11-16T09:32:41.594Z,103.30
2022-11-16T09:33:41.539Z,97.90
2022-11-16T09:34:41.517Z,83.20
2022-11-16T09:35:41.499Z,87.90
2022-11-16T09:36:41.538Z,89.20
2022-11-16T09:37:41.523Z,87.90
2022-11-16T09:39:13.289Z,87.10
2022-11-16T09:39:41.482Z,75.00
2022-11-16T09:40:41.455Z,82.70
2022-11-16T09:41:41.447Z,75.90
2022-11-16T09:42:41.417Z,78.00
2022-11-16T09:43:45.772Z,75.30
2022-11-16T09:44:41.447Z,80.50
2022-11-16T09:45:41.421Z,72.00
2022-11-16T09:46:41.418Z,76.50
2022-11-16T09:47:41.386Z,81.00
2022-11-16T09:48:41.379Z,80.20
2022-11-16T09:49:41.389Z,73.10
2022-11-16T09:50:41.372Z,73.70
2022-11-16T09:51:41.416Z,71.50
2022-11-16T09:52:41.449Z,66.30
2022-11-16T09:53:41.339Z,65.10
2022-11-16T09:54:41.312Z,61.90
2022-11-16T09:55:41.457Z,63.70
2022-11-16T09:56:41.254Z,63.80
2022-11-16T09:57:41.362Z,60.60
2022-11-16T10:05:56.667Z,58.30
2022-11-16T10:06:57.709Z,52.60
2022-11-16T10:07:57.617Z,50.10
2022-11-16T10:08:57.626Z,49.80
2022-11-16T10:09:57.626Z,46.70
2022-11-16T10:10:57.618Z,39.90
2022-11-16T10:11:57.647Z,39.10
2022-11-16T10:12:57.610Z,42.30
2022-11-16T10:14:02.821Z,37.90
2022-11-16T10:14:57.592Z,36.60
2022-11-16T10:15:57.562Z,37.20
2022-11-16T10:16:57.557Z,34.20
2022-11-16T10:17:57.521Z,34.70
2022-11-16T10:18:57.488Z,37.20
2022-11-16T10:19:57.517Z,36.60
2022-11-16T10:20:57.476Z,36.40
2022-11-16T10:21:57.484Z,38.40
2022-11-16T10:22:57.639Z,39.20
2022-11-16T10:23:57.449Z,33.90
2022-11-16T10:24:57.403Z,40.40
2022-11-16T10:25:57.407Z,38.10
2022-11-16T10:26:57.408Z,36.90
2022-11-16T10:27:57.409Z,36.20
2022-11-16T10:28:57.435Z,39.10
2022-11-16T10:29:57.342Z,41.10
2022-11-16T10:30:57.353Z,36.10
2022-11-16T10:31:57.332Z,39.90
2022-11-16T10:32:57.302Z,38.40
2022-11-16T10:33:57.360Z,38.40
2022-11-16T10:34:57.268Z,40.90
2022-11-16T10:35:57.321Z,39.50
2022-11-16T10:36:57.231Z,41.00
2022-11-16T10:37:57.318Z,41.00
2022-11-16T10:38:57.223Z,40.50
2022-11-16T10:39:57.217Z,45.70
2022-11-16T10:40:57.196Z,42.00
2022-11-16T10:41:57.176Z,45.60
2022-11-16T10:42:57.176Z,47.70
2022-11-16T10:43:57.181Z,44.20
2022-11-16T10:44:57.143Z,43.90
2022-11-16T10:45:57.155Z,51.70
2022-11-16T10:46:57.130Z,45.40
2022-11-16T10:47:57.098Z,47.40
2022-11-16T10:48:57.106Z,50.10
2022-11-16T10:49:57.120Z,45.80
2022-11-16T10:50:57.309Z,49.80
2022-11-16T10:51:57.064Z,46.10
2022-11-16T10:52:57.054Z,45.80
2022-11-16T10:53:57.050Z,47.10
2022-11-16T10:54:57.050Z,45.80
2022-11-16T10:55:57.030Z,48.30
2022-11-16T10:56:56.995Z,43.10
2022-11-16T10:57:57.017Z,43.10
2022-11-16T10:58:56.990Z,46.30
2022-11-16T10:59:56.990Z,43.20
2022-11-16T11:00:56.965Z,41.80
2022-11-16T11:01:56.933Z,40.00
2022-11-16T11:02:56.926Z,45.00
2022-11-16T11:03:56.923Z,43.70
2022-11-16T11:04:56.919Z,39.20
2022-11-16T11:05:56.907Z,44.80
2022-11-16T11:06:56.970Z,41.10
2022-11-16T11:07:59.555Z,41.30
2022-11-16T11:08:56.873Z,43.70
2022-11-16T11:09:56.898Z,41.40
2022-11-16T11:10:56.807Z,36.50
2022-11-16T11:11:56.844Z,41.60
2022-11-16T11:12:56.810Z,40.80
2022-11-16T11:13:56.789Z,43.70
2022-11-16T11:14:56.788Z,37.40
2022-11-16T11:15:56.737Z,37.30
2022-11-16T11:16:56.782Z,42.80
2022-11-16T11:17:56.793Z,40.10
2022-11-16T11:18:56.736Z,40.50
2022-11-16T11:19:56.712Z,39.90
2022-11-16T11:20:56.706Z,44.80
2022-11-16T11:21:56.725Z,41.90
2022-11-16T11:22:56.670Z,42.00
2022-11-16T11:24:10.555Z,40.80
2022-11-16T11:24:56.630Z,38.50
2022-11-16T11:25:56.612Z,41.80
2022-11-16T11:26:56.591Z,38.10
2022-11-16T11:27:56.593Z,39.20
2022-11-16T11:28:56.565Z,38.70
2022-11-16T11:29:56.584Z,33.50
2022-11-16T11:30:56.530Z,39.20
2022-11-16T11:31:56.555Z,43.30
2022-11-16T11:32:56.525Z,38.70
2022-11-16T11:33:56.509Z,41.20
2022-11-16T11:34:56.492Z,36.40
2022-11-16T11:35:56.470Z,38.40
2022-11-16T11:36:56.476Z,33.50
2022-11-16T11:37:56.477Z,35.70
2022-11-16T11:38:56.523Z,37.00
2022-11-16T11:39:56.416Z,34.30
2022-11-16T11:40:56.405Z,37.70
2022-11-16T11:41:56.426Z,36.40
2022-11-16T11:42:56.460Z,37.80
2022-11-16T11:43:56.382Z,36.00
2022-11-16T11:44:56.376Z,40.50
2022-11-16T11:45:56.363Z,38.10
2022-11-16T11:47:42.509Z,41.40
2022-11-16T11:48:00.797Z,38.40
2022-11-16T11:48:56.327Z,37.80
2022-11-16T11:49:56.354Z,40.10
2022-11-16T11:50:56.285Z,35.90
2022-11-16T11:51:56.294Z,37.70
2022-11-16T11:52:56.297Z,41.30
2022-11-16T11:53:56.296Z,35.80
2022-11-16T11:54:56.334Z,38.50
2022-11-16T11:55:56.264Z,37.10
2022-11-16T11:56:56.241Z,44.80
2022-11-16T11:57:56.302Z,37.00
2022-11-16T11:58:56.278Z,39.60
2022-11-16T11:59:56.212Z,37.10
2022-11-16T12:00:56.158Z,35.90
2022-11-16T12:01:56.129Z,35.20
2022-11-16T12:02:56.142Z,35.20
2022-11-16T12:03:56.141Z,34.40
2022-11-16T12:04:56.104Z,35.40
2022-11-16T12:05:56.127Z,37.30
2022-11-16T12:06:56.131Z,36.60
2022-11-16T12:07:56.060Z,39.30
2022-11-16T12:08:56.185Z,37.40
2022-11-16T12:09:56.707Z,32.00
2022-11-16T12:10:56.028Z,34.90
2022-11-16T12:11:56.035Z,36.70
2022-11-16T12:12:56.029Z,35.10
2022-11-16T12:13:56.046Z,38.10
2022-11-16T12:14:55.977Z,35.20
2022-11-16T12:15:55.962Z,34.00
2022-11-16T12:16:55.970Z,34.30
2022-11-16T12:17:55.980Z,35.30
2022-11-16T12:18:55.942Z,33.50
2022-11-16T12:19:55.935Z,35.10
2022-11-16T12:20:55.895Z,34.60
2022-11-16T12:21:55.926Z,34.00
2022-11-16T12:23:01.036Z,35.20
2022-11-16T12:23:55.891Z,35.00
2022-11-16T12:24:55.843Z,35.20
2022-11-16T12:25:55.847Z,34.50
2022-11-16T12:26:55.821Z,34.50
2022-11-16T12:27:55.806Z,36.70
2022-11-16T12:28:55.795Z,38.30
2022-11-16T12:29:55.793Z,36.60
2022-11-16T12:30:55.744Z,35.00
2022-11-16T12:31:55.827Z,37.40
2022-11-16T12:32:55.741Z,34.80
2022-11-16T12:33:55.778Z,35.00
2022-11-16T12:34:55.690Z,35.30
2022-11-16T12:35:55.683Z,34.90
2022-11-16T12:36:55.667Z,33.80
2022-11-16T12:37:55.657Z,35.80
2022-11-16T12:38:55.848Z,34.40
2022-11-16T12:39:55.668Z,36.20
2022-11-16T12:40:55.637Z,39.20
2022-11-16T12:41:55.610Z,41.80
2022-11-16T12:42:55.604Z,34.80
2022-11-16T12:43:55.611Z,40.00